createdAt,value
2022-11-18T00:03:35.680Z,70.24
2022-11-18T00:08:35.274Z,70.20
2022-11-18T00:13:51.419Z,70.18
2022-11-18T00:18:50.524Z,70.10
2022-11-18T00:23:51.348Z,69.94
2022-11-18T00:28:49.930Z,69.89
2022-11-18T00:33:48.159Z,69.82
2022-11-18T00:38:46.696Z,69.82
2022-11-18T00:43:45.956Z,69.76
2022-11-18T00:48:45.589Z,69.65
2022-11-18T00:53:44.517Z,69.51
2022-11-18T00:58:44.125Z,69.40
2022-11-18T01:03:43.324Z,69.44
2022-11-18T01:08:42.185Z,69.33
2022-11-18T01:13:40.663Z,69.27
2022-11-18T01:18:39.579Z,69.32
2022-11-18T01:23:38.641Z,69.24
2022-11-18T01:28:38.294Z,69.32
2022-11-18T01:33:37.346Z,69.35
2022-11-18T01:38:36.734Z,69.17
2022-11-18T01:43:55.171Z,69.36
2022-11-18T01:48:59.898Z,69.37
2022-11-18T01:54:07.122Z,69.38
2022-11-18T01:59:12.232Z,69.54
2022-11-18T02:04:12.887Z,69.44
2022-11-18T02:09:11.838Z,69.79
2022-11-18T02:14:13.202Z,69.96
2022-11-18T02:19:39.211Z,70.11
2022-11-18T02:24:57.334Z,70.13
2022-11-18T02:30:04.479Z,70.11
2022-11-18T02:35:14.344Z,70.35
2022-11-18T02:40:21.681Z,70.25
2022-11-18T02:45:23.292Z,70.36
2022-11-18T02:50:29.194Z,70.57
2022-11-18T02:55:33.782Z,70.67
2022-11-18T03:00:33.311Z,70.72
2022-11-18T03:05:42.676Z,71.00
2022-11-18T03:10:44.803Z,71.18
2022-11-18T03:15:56.824Z,71.32
2022-11-18T03:21:05.304Z,71.54
2022-11-18T03:26:10.798Z,71.78
2022-11-18T03:31:17.291Z,71.91
2022-11-18T03:36:20.974Z,72.04
2022-11-18T03:41:23.643Z,72.28
2022-11-18T03:46:30.104Z,72.53
2022-11-18T03:51:37.369Z,72.78
2022-11-18T03:56:45.083Z,72.92
2022-11-18T04:01:50.810Z,73.20
2022-11-18T04:06:55.901Z,73.54
2022-11-18T04:12:04.424Z,73.97
2022-11-18T04:17:06.802Z,74.36
2022-11-18T04:22:05.696Z,74.74
2022-11-18T04:27:04.709Z,75.07
2022-11-18T04:32:04.404Z,75.24
2022-11-18T04:37:03.168Z,75.36
2022-11-18T04:42:01.639Z,75.58
2022-11-18T04:47:02.250Z,75.76
2022-11-18T04:52:01.456Z,75.95
2022-11-18T04:57:01.126Z,76.12
2022-11-18T05:02:01.255Z,76.23
2022-11-18T05:07:02.006Z,76.43
2022-11-18T05:12:17.973Z,76.54
2022-11-18T05:17:16.827Z,76.56
2022-11-18T05:22:15.581Z,76.50
2022-11-18T05:27:15.220Z,76.39
2022-11-18T05:32:14.578Z,76.32
2022-11-18T05:37:14.195Z,76.30
2022-11-18T05:42:32.317Z,76.28
2022-11-18T05:47:51.697Z,76.25
2022-11-18T05:52:51.311Z,76.26
2022-11-18T05:57:51.245Z,76.30
2022-11-18T06:02:55.806Z,76.15
2022-11-18T06:08:01.254Z,76.24
2022-11-18T06:13:07.440Z,76.21
2022-11-18T06:18:12.322Z,76.04
2022-11-18T06:23:11.364Z,75.89
2022-11-18T06:28:14.107Z,75.85
2022-11-18T06:33:13.340Z,75.73
2022-11-18T06:38:12.851Z,75.70
2022-11-18T06:43:32.128Z,75.69
2022-11-18T06:48:32.831Z,75.56
2022-11-18T06:53:32.093Z,75.32
2022-11-18T06:58:31.584Z,75.25
2022-11-18T07:03:30.840Z,75.00
2022-11-18T07:08:29.897Z,74.80
2022-11-18T07:13:29.649Z,74.83
2022-11-18T07:18:30.957Z,74.69
2022-11-18T07:23:31.294Z,74.56
2022-11-18T07:28:31.687Z,74.50
2022-11-18T07:33:31.491Z,74.22
2022-11-18T07:38:31.006Z,74.04
2022-11-18T07:43:29.840Z,73.81
2022-11-18T07:48:28.375Z,73.33
2022-11-18T07:53:27.005Z,73.01
2022-11-18T07:58:29.234Z,73.04
2022-11-18T08:03:31.562Z,72.56
2022-11-18T08:08:30.732Z,72.62
2022-11-18T08:13:30.264Z,72.71
2022-11-18T08:18:31.094Z,72.43
2022-11-18T08:23:34.010Z,71.69
2022-11-18T08:28:35.508Z,71.53
2022-11-18T08:33:34.368Z,70.98
2022-11-18T08:38:32.585Z,70.70
2022-11-18T08:43:32.333Z,70.59
2022-11-18T08:48:31.568Z,70.49
2022-11-18T08:53:30.607Z,70.33
2022-11-18T08:58:30.286Z,69.93
2022-11-18T09:03:31.982Z,70.18
2022-11-18T09:08:31.330Z,70.46
2022-11-18T09:18:49.855Z,69.47
2022-11-18T09:23:49.229Z,69.56
2022-11-18T09:28:49.514Z,69.50
2022-11-18T09:33:48.791Z,69.48
2022-11-18T09:38:51.797Z,69.07
2022-11-18T09:44:05.060Z,68.56
2022-11-18T09:49:15.880Z,68.32
2022-11-18T09:54:23.944Z,67.89
2022-11-18T09:59:26.396Z,67.14
2022-11-18T10:04:26.281Z,67.05
2022-11-18T10:09:36.689Z,66.77
2022-11-18T10:14:57.294Z,66.32
2022-11-18T10:20:15.446Z,66.36
2022-11-18T10:25:19.088Z,65.99
2022-11-18T10:30:22.814Z,65.54
2022-11-18T10:35:32.951Z,64.78
2022-11-18T10:40:35.275Z,64.71
2022-11-18T10:45:36.305Z,64.61
2022-11-18T10:50:39.661Z,64.68
2022-11-18T10:55:38.563Z,64.97
2022-11-18T11:00:47.339Z,64.78
2022-11-18T11:05:46.841Z,64.51
2022-11-18T11:10:57.639Z,64.22
2022-11-18T11:16:02.941Z,64.08
2022-11-18T11:21:02.199Z,64.08
2022-11-18T11:31:41.330Z,63.63
2022-11-18T11:36:50.721Z,64.07
2022-11-18T11:42:02.267Z,64.18
2022-11-18T11:47:40.049Z,63.87
2022-11-18T11:52:51.470Z,64.20
2022-11-18T11:58:13.012Z,64.60
2022-11-18T12:03:35.160Z,64.50
2022-11-18T12:08:36.372Z,63.65
2022-11-18T12:13:49.341Z,63.22
2022-11-18T12:18:55.933Z,62.91
2022-11-18T12:24:34.363Z,62.80
2022-11-18T12:29:45.586Z,62.46
2022-11-18T12:34:46.893Z,62.48
2022-11-18T12:40:01.636Z,62.40
2022-11-18T12:45:37.961Z,62.51
2022-11-18T12:50:55.577Z,62.71
2022-11-18T12:55:55.088Z,63.05
2022-11-18T13:01:06.534Z,63.06
2022-11-18T13:06:24.676Z,63.34
2022-11-18T13:11:41.757Z,63.53
2022-11-18T13:16:59.166Z,64.03
2022-11-18T13:22:19.305Z,64.42
2022-11-18T13:35:13.376Z,65.36
2022-11-18T13:40:26.707Z,65.67
2022-11-18T13:45:30.540Z,65.69
2022-11-18T14:04:09.958Z,67.14
2022-11-18T14:09:28.524Z,67.64
2022-11-18T14:14:36.541Z,68.24
2022-11-18T14:19:39.542Z,68.57
2022-11-18T14:24:44.362Z,69.01
2022-11-18T14:29:54.161Z,69.34
2022-11-18T14:35:02.052Z,69.78
2022-11-18T14:40:02.211Z,70.21
2022-11-18T14:45:02.746Z,70.71
2022-11-18T14:50:01.961Z,71.14
2022-11-18T14:55:02.507Z,71.65
2022-11-18T15:00:02.228Z,72.09
2022-11-18T15:05:01.398Z,72.37
2022-11-18T15:10:03.046Z,72.38
2022-11-18T15:15:01.902Z,72.51
2022-11-18T15:20:01.146Z,72.67
2022-11-18T15:25:01.133Z,72.71
2022-11-18T15:30:01.782Z,72.73
2022-11-18T15:35:01.521Z,72.93
2022-11-18T15:40:00.958Z,73.13
2022-11-18T15:45:00.702Z,73.38
2022-11-18T15:50:01.417Z,73.25
2022-11-18T15:55:03.058Z,73.04
2022-11-18T16:00:03.080Z,72.76
2022-11-18T16:05:13.745Z,72.70
2022-11-18T16:10:32.901Z,72.61
2022-11-18T16:15:48.402Z,72.82
2022-11-18T16:20:52.800Z,72.93
2022-11-18T16:25:54.982Z,72.93
2022-11-18T16:31:11.243Z,72.95
2022-11-18T16:36:11.300Z,72.92
2022-11-18T16:41:25.557Z,72.93
2022-11-18T16:46:24.739Z,72.79
2022-11-18T16:51:29.440Z,72.66
2022-11-18T16:56:31.142Z,72.67
2022-11-18T17:01:31.045Z,72.53
2022-11-18T17:06:31.413Z,72.23
2022-11-18T17:11:31.356Z,72.18
2022-11-18T17:16:40.102Z,72.23
2022-11-18T17:21:49.692Z,72.29
2022-11-18T17:26:52.639Z,72.46
2022-11-18T17:31:53.899Z,72.51
2022-11-18T17:36:52.933Z,72.46
2022-11-18T17:42:10.164Z,72.46
2022-11-18T17:47:10.465Z,72.38
2022-11-18T17:52:09.965Z,72.06
2022-11-18T17:57:08.865Z,71.83
2022-11-18T18:02:08.143Z,71.86
2022-11-18T18:07:07.953Z,71.69
2022-11-18T18:12:27.781Z,71.47
2022-11-18T18:17:26.929Z,71.38
2022-11-18T18:22:25.874Z,71.14
2022-11-18T18:27:25.440Z,71.20
2022-11-18T18:32:25.163Z,71.22
2022-11-18T18:37:24.574Z,71.24
2022-11-18T18:42:24.099Z,71.10
2022-11-18T18:47:23.768Z,70.97
2022-11-18T18:52:23.277Z,70.53
2022-11-18T18:57:22.291Z,70.43
2022-11-18T19:02:22.527Z,70.43
2022-11-18T19:07:21.647Z,70.29
2022-11-18T19:12:38.801Z,70.18
2022-11-18T19:17:46.468Z,70.06
2022-11-18T19:22:57.150Z,70.26
2022-11-18T19:27:56.263Z,70.15
2022-11-18T19:32:59.172Z,70.08
2022-11-18T19:38:01.471Z,70.04
2022-11-18T19:43:01.482Z,70.11
2022-11-18T19:48:03.453Z,70.01
2022-11-18T19:53:23.822Z,69.91
2022-11-18T19:58:32.578Z,70.04
2022-11-18T20:03:33.382Z,69.73
2022-11-18T20:08:37.874Z,69.76
2022-11-18T20:13:38.353Z,69.61
2022-11-18T20:18:38.882Z,69.32
2022-11-18T20:23:39.427Z,69.32
2022-11-18T20:28:41.900Z,69.26
2022-11-18T20:33:43.929Z,69.17
2022-11-18T20:38:44.862Z,68.97
2022-11-18T20:43:48.481Z,68.73
2022-11-18T20:48:52.481Z,68.53
2022-11-18T20:53:58.233Z,68.59
2022-11-18T20:59:02.579Z,68.67
2022-11-18T21:10:42.148Z,69.83
2022-11-18T21:15:45.550Z,69.99
2022-11-18T21:21:07.672Z,69.56
2022-11-18T21:26:13.226Z,69.71
2022-11-18T21:31:17.235Z,69.68
2022-11-18T21:36:19.273Z,69.69
2022-11-18T21:41:19.633Z,69.75
2022-11-18T21:46:22.543Z,69.72
2022-11-18T21:51:25.559Z,69.81
2022-11-18T21:56:28.932Z,69.96
2022-11-18T22:01:30.132Z,69.84
2022-11-18T22:06:33.728Z,69.96
2022-11-18T22:11:33.423Z,69.90
2022-11-18T22:16:46.700Z,69.80
2022-11-18T22:21:45.501Z,69.83
2022-11-18T22:26:45.609Z,69.93
2022-11-18T22:31:45.349Z,69.93
2022-11-18T22:36:43.975Z,69.86
2022-11-18T22:42:08.793Z,69.85
2022-11-18T22:47:08.369Z,69.62
2022-11-18T22:52:08.124Z,69.65
2022-11-18T22:57:07.072Z,69.80
2022-11-18T23:02:05.895Z,69.68
2022-11-18T23:07:05.300Z,69.61
2022-11-18T23:12:27.353Z,69.78
2022-11-18T23:17:26.242Z,69.70
2022-11-18T23:22:25.670Z,69.82
2022-11-18T23:27:24.794Z,69.96
2022-11-18T23:32:28.598Z,70.07
2022-11-18T23:37:31.691Z,69.92
2022-11-18T23:42:31.783Z,69.90
2022-11-18T23:47:32.349Z,69.96
2022-11-18T23:52:31.197Z,70.14
2022-11-18T23:57:30.416Z,70.17
